Time;durP1;ratioP1;P1;durP2;ratioP2;P2;SDS_P1;SDS_P2;PMS_P1;PMS_P2;Temp;Humidity;BMP_temperature;BMP_pressure;BME280_temperature;BME280_humidity;BME280_pressure;Samples;Min_cycle;Max_cycle;Signal;HPM_P1;HPM_P2
2022/05/15 00:00:41;;;;;;;0.90;0.90;;;14.10;61.10;13.30;98582.00;;;;5015811;28;20260;-76
2022/05/15 00:03:12;;;;;;;2.90;1.07;;;14.00;61.90;13.30;98575.00;;;;5015718;28;20363;-76
2022/05/15 00:05:44;;;;;;;0.80;0.80;;;14.00;61.90;13.60;98575.00;;;;5015813;28;20205;-76
2022/05/15 00:08:12;;;;;;;1.03;1.03;;;14.10;61.10;13.50;98557.00;;;;5015804;28;20304;-76
2022/05/15 00:10:43;;;;;;;0.90;0.90;;;14.10;61.30;13.50;98560.00;;;;5015602;28;20230;-76
2022/05/15 00:13:10;;;;;;;0.90;0.90;;;14.10;61.60;13.50;98554.00;;;;5015593;28;20232;-76
2022/05/15 00:15:41;;;;;;;1.17;1.17;;;14.10;60.80;13.60;98570.00;;;;4998236;28;20202;-76
2022/05/15 00:18:09;;;;;;;0.90;0.90;;;14.10;60.80;13.60;98564.00;;;;5015493;28;20229;-76
2022/05/15 00:20:37;;;;;;;0.93;0.93;;;14.10;61.40;13.40;98566.00;;;;5015450;28;20197;-76
2022/05/15 00:23:06;;;;;;;0.80;0.80;;;14.00;61.00;13.50;98569.00;;;;5015527;28;20224;-76
2022/05/15 00:25:36;;;;;;;0.80;0.80;;;14.10;61.20;13.30;98563.00;;;;4998374;28;20595;-76
2022/05/15 00:28:04;;;;;;;1.00;1.00;;;13.90;61.00;13.40;98556.00;;;;5015512;28;20229;-76
2022/05/15 00:30:32;;;;;;;4.73;1.33;;;13.90;61.40;13.30;98559.00;;;;5015331;28;20204;-76
2022/05/15 00:32:59;;;;;;;0.73;0.73;;;13.90;61.00;13.40;98568.00;;;;5014466;28;20229;-77
2022/05/15 00:35:26;;;;;;;0.90;0.90;;;13.90;62.60;13.50;98538.00;;;;5015525;28;20206;-75
2022/05/15 00:37:53;;;;;;;0.77;0.77;;;14.00;62.40;13.40;98564.00;;;;5014995;28;20225;-76
2022/05/15 00:40:22;;;;;;;0.70;0.70;;;14.00;62.40;13.50;98562.00;;;;5015179;28;20550;-75
2022/05/15 00:42:50;;;;;;;0.70;0.70;;;14.00;61.60;13.30;98567.00;;;;5014993;28;20229;-76
2022/05/15 00:45:21;;;;;;;0.97;0.97;;;14.00;62.10;13.30;98563.00;;;;5015105;28;20663;-76
2022/05/15 00:47:51;;;;;;;0.80;0.80;;;13.90;62.20;13.30;98550.00;;;;4998092;28;20201;-76
2022/05/15 00:50:24;;;;;;;0.83;0.83;;;13.80;62.90;13.30;98542.00;;;;4997834;28;20221;-75
2022/05/15 00:52:56;;;;;;;0.90;0.90;;;13.90;63.20;13.30;98559.00;;;;4997586;28;20194;-78
2022/05/15 00:55:30;;;;;;;0.73;0.73;;;13.80;62.20;13.50;98539.00;;;;5015022;28;20676;-76
2022/05/15 00:58:05;;;;;;;0.60;0.60;;;13.90;63.60;13.20;98550.00;;;;5014831;28;20217;-76
2022/05/15 01:00:35;;;;;;;1.10;1.10;;;13.90;62.70;13.10;98545.00;;;;5015049;28;20237;-77
2022/05/15 01:03:08;;;;;;;1.30;1.30;;;13.80;63.30;13.30;98522.00;;;;5014764;28;20225;-76
2022/05/15 01:05:37;;;;;;;0.80;0.80;;;13.80;62.90;13.20;98544.00;;;;5014795;28;20240;-76
2022/05/15 01:08:05;;;;;;;1.47;1.43;;;13.80;63.00;13.00;98539.00;;;;5014705;28;20287;-76
2022/05/15 01:10:33;;;;;;;0.77;0.77;;;13.60;63.80;12.90;98530.00;;;;4997910;28;20531;-76
2022/05/15 01:13:04;;;;;;;1.60;1.50;;;13.60;64.60;13.00;98530.00;;;;5014914;28;20807;-76
2022/05/15 01:15:31;;;;;;;1.37;1.33;;;13.60;64.90;13.10;98530.00;;;;5014649;28;20219;-74
2022/05/15 01:17:57;;;;;;;0.80;0.80;;;13.60;65.10;13.10;98534.00;;;;5014648;28;20223;-76
2022/05/15 01:20:27;;;;;;;1.83;1.07;;;13.60;65.00;13.20;98530.00;;;;5014567;28;20636;-76
2022/05/15 01:22:55;;;;;;;1.60;1.50;;;13.60;65.20;13.10;98536.00;;;;5014406;28;20221;-77
2022/05/15 01:25:26;;;;;;;0.80;0.80;;;13.60;64.90;13.10;98523.00;;;;4997351;28;20252;-77
2022/05/15 01:28:04;;;;;;;0.70;0.70;;;13.60;64.90;13.00;98527.00;;;;5014455;28;20309;-76
2022/05/15 01:30:31;;;;;;;0.80;0.80;;;13.50;65.40;13.00;98525.00;;;;5014514;28;20193;-76
2022/05/15 01:32:58;;;;;;;0.70;0.70;;;13.50;65.50;12.80;98527.00;;;;5014577;28;20296;-77
2022/05/15 01:35:25;;;;;;;1.23;1.23;;;13.50;65.90;12.80;98528.00;;;;5014440;28;20275;-76
2022/05/15 01:37:51;;;;;;;1.20;1.20;;;13.40;66.10;12.70;98527.00;;;;5014386;28;20231;-76
2022/05/15 01:40:19;;;;;;;1.07;0.90;;;13.30;66.70;12.70;98521.00;;;;4997230;28;20225;-77
2022/05/15 01:42:48;;;;;;;0.80;0.80;;;13.30;66.50;12.60;98524.00;;;;5014193;28;20229;-76
2022/05/15 01:45:16;;;;;;;1.33;1.33;;;13.20;66.80;12.60;98540.00;;;;4997194;28;20236;-77
2022/05/15 01:47:43;;;;;;;0.80;0.80;;;13.20;67.20;12.70;98530.00;;;;5014094;28;20197;-76
2022/05/15 01:50:13;;;;;;;0.80;0.80;;;13.20;67.10;12.50;98531.00;;;;5012889;28;20556;-76
2022/05/15 01:52:41;;;;;;;1.50;1.40;;;13.10;67.20;12.60;98545.00;;;;4996929;28;20236;-76
2022/05/15 01:55:11;;;;;;;0.73;0.73;;;13.10;67.20;12.40;98516.00;;;;5014113;28;20227;-77
2022/05/15 01:57:40;;;;;;;0.77;0.77;;;13.10;66.80;12.50;98538.00;;;;5014040;28;20228;-77
2022/05/15 02:00:12;;;;;;;1.10;1.00;;;13.10;67.10;12.40;98528.00;;;;5014009;28;20312;-77
2022/05/15 02:02:40;;;;;;;3.50;2.40;;;13.00;67.20;12.50;98536.00;;;;5013058;28;20224;-77
2022/05/15 02:05:08;;;;;;;1.50;1.40;;;13.00;68.20;12.40;98530.00;;;;4996897;28;20233;-76
2022/05/15 02:07:35;;;;;;;0.90;0.90;;;12.90;67.30;12.50;98535.00;;;;4996808;28;20213;-77
2022/05/15 02:10:03;;;;;;;0.80;0.80;;;13.00;67.50;12.30;98541.00;;;;5013900;28;20267;-77
2022/05/15 02:12:29;;;;;;;1.03;1.03;;;12.90;67.80;12.20;98536.00;;;;5013887;28;20252;-77
2022/05/15 02:14:57;;;;;;;1.30;1.10;;;12.90;67.60;12.10;98520.00;;;;5014135;28;20373;-77
2022/05/15 02:17:24;;;;;;;2.30;1.63;;;12.70;67.80;12.10;98521.00;;;;5013819;28;20212;-77
2022/05/15 02:19:50;;;;;;;0.80;0.80;;;12.70;69.00;12.30;98520.00;;;;5013847;28;20224;-77
2022/05/15 02:22:17;;;;;;;0.87;0.87;;;12.80;68.20;12.20;98525.00;;;;5013730;28;20221;-77
2022/05/15 02:24:43;;;;;;;3.50;1.47;;;12.80;67.70;12.30;98515.00;;;;5013745;28;20559;-76
2022/05/15 02:27:10;;;;;;;1.00;1.00;;;12.80;67.90;12.30;98518.00;;;;5013680;28;20248;-76
2022/05/15 02:29:37;;;;;;;0.50;0.50;;;12.80;68.50;12.30;98527.00;;;;5013585;28;20280;-77
2022/05/15 02:32:05;;;;;;;0.70;0.70;;;12.80;68.20;12.10;98528.00;;;;5013901;28;20212;-77
2022/05/15 02:34:32;;;;;;;2.00;1.70;;;12.70;67.60;12.10;98518.00;;;;5012784;28;20510;-76
2022/05/15 02:36:58;;;;;;;1.27;1.27;;;12.70;67.90;12.30;98528.00;;;;5013788;28;20254;-77
2022/05/15 02:39:25;;;;;;;1.10;1.07;;;12.80;68.90;12.20;98526.00;;;;5013843;28;20216;-76
2022/05/15 02:41:51;;;;;;;0.87;0.87;;;12.70;67.50;12.10;98522.00;;;;4996411;28;20648;-77
2022/05/15 02:44:18;;;;;;;0.70;0.70;;;12.70;67.30;12.00;98527.00;;;;5013585;28;20217;-76
2022/05/15 02:46:44;;;;;;;2.47;1.17;;;12.70;67.90;12.00;98513.00;;;;5013554;28;20224;-76
2022/05/15 02:51:56;;;;;;;0.87;0.87;;;12.60;68.70;12.10;98514.00;;;;5013377;28;20296;-76
2022/05/15 02:54:23;;;;;;;0.47;0.47;;;12.60;68.40;11.90;98513.00;;;;4996248;28;20360;-76
2022/05/15 02:56:49;;;;;;;1.03;1.03;;;12.50;68.30;11.90;98510.00;;;;5013559;28;20221;-77
2022/05/15 02:59:17;;;;;;;1.60;1.50;;;12.50;68.80;11.90;98513.00;;;;5013506;28;20325;-77
2022/05/15 03:01:43;;;;;;;0.80;0.80;;;12.50;68.20;11.80;98519.00;;;;5013171;28;20229;-77
2022/05/15 03:04:10;;;;;;;0.80;0.80;;;12.40;68.30;11.60;98516.00;;;;4998468;28;20535;-77
2022/05/15 03:06:39;;;;;;;0.77;0.77;;;12.30;68.80;11.60;98507.00;;;;5016638;28;20231;-76
2022/05/15 03:09:06;;;;;;;1.33;1.33;;;12.30;69.30;11.50;98508.00;;;;5016808;28;20233;-76
2022/05/15 03:11:33;;;;;;;1.30;1.30;;;12.20;69.80;11.50;98516.00;;;;5016514;28;20304;-77
2022/05/15 03:13:59;;;;;;;0.87;0.87;;;12.10;69.70;11.60;98514.00;;;;5016605;28;20194;-76
2022/05/15 03:16:28;;;;;;;1.13;1.03;;;12.10;69.70;11.60;98520.00;;;;5016377;28;20320;-77
2022/05/15 03:18:54;;;;;;;0.93;0.93;;;12.20;69.40;11.60;98516.00;;;;4999287;28;20217;-77
2022/05/15 03:21:30;;;;;;;0.60;0.60;;;12.20;69.30;11.70;98518.00;;;;4999225;28;20260;-76
2022/05/15 03:23:58;;;;;;;0.83;0.83;;;12.20;69.60;11.70;98515.00;;;;5016593;28;20205;-77
2022/05/15 03:26:27;;;;;;;1.00;1.00;;;12.20;69.60;11.60;98536.00;;;;5016376;28;20253;-76
2022/05/15 03:28:54;;;;;;;0.87;0.87;;;12.30;69.10;11.70;98514.00;;;;5015473;28;20270;-76
2022/05/15 03:31:21;;;;;;;1.10;1.10;;;12.20;69.30;11.70;98519.00;;;;5016241;28;20292;-77
2022/05/15 03:33:47;;;;;;;0.90;0.90;;;12.30;69.20;11.70;98514.00;;;;5016296;28;20617;-76
2022/05/15 03:36:16;;;;;;;0.93;0.93;;;12.20;69.00;11.60;98499.00;;;;4998870;28;20240;-77
2022/05/15 03:38:46;;;;;;;0.80;0.80;;;12.20;69.80;11.30;98519.00;;;;5016413;28;20227;-77
2022/05/15 03:41:17;;;;;;;0.73;0.73;;;12.10;69.30;11.50;98520.00;;;;5016114;28;20312;-77
2022/05/15 03:43:43;;;;;;;1.23;1.13;;;12.10;69.70;11.60;98527.00;;;;5016233;28;20209;-77
2022/05/15 03:46:12;;;;;;;0.70;0.70;;;12.10;69.60;11.50;98526.00;;;;5016048;28;20268;-77
2022/05/15 03:48:39;;;;;;;0.80;0.80;;;12.20;69.50;11.40;98530.00;;;;5016010;28;20209;-77
2022/05/15 03:51:06;;;;;;;0.83;0.83;;;12.10;69.90;11.40;98529.00;;;;5015850;28;20263;-77
2022/05/15 03:53:33;;;;;;;1.03;0.83;;;12.00;70.40;11.50;98535.00;;;;5015346;28;20661;-76
2022/05/15 03:56:04;;;;;;;2.10;0.90;;;12.00;70.50;11.60;98540.00;;;;5015784;28;20213;-76
2022/05/15 03:58:35;;;;;;;0.90;0.90;;;12.10;69.60;11.50;98499.00;;;;5015992;28;20178;-76
2022/05/15 04:01:02;;;;;;;2.20;2.03;;;12.10;69.70;11.50;98536.00;;;;5015742;28;20288;-76
2022/05/15 04:03:31;;;;;;;0.90;0.90;;;12.10;69.60;11.40;98528.00;;;;5015948;28;20202;-76
2022/05/15 04:05:58;;;;;;;0.90;0.90;;;12.00;69.20;11.50;98539.00;;;;5016205;28;20197;-77
2022/05/15 04:08:27;;;;;;;0.93;0.93;;;12.10;69.10;11.60;98550.00;;;;5016741;28;20268;-76
2022/05/15 04:10:55;;;;;;;0.80;0.80;;;12.10;68.90;11.60;98545.00;;;;5020926;28;20263;-76
2022/05/15 04:13:23;;;;;;;1.03;1.03;;;12.20;68.20;11.40;98534.00;;;;5007507;28;20228;-77
2022/05/15 04:15:50;;;;;;;0.87;0.87;;;12.10;68.20;11.60;98534.00;;;;5021476;28;20197;-76
2022/05/15 04:18:16;;;;;;;0.70;0.70;;;12.10;69.30;11.50;98536.00;;;;5019902;28;20672;-76
2022/05/15 04:20:43;;;;;;;0.97;0.97;;;12.10;68.90;11.50;98534.00;;;;5015957;28;20193;-76
2022/05/15 04:23:09;;;;;;;0.80;0.80;;;12.00;68.60;11.50;98529.00;;;;5015714;28;20320;-76
2022/05/15 04:25:36;;;;;;;0.90;0.90;;;12.10;68.70;11.40;98538.00;;;;5015565;28;20200;-76
2022/05/15 04:28:05;;;;;;;0.97;0.93;;;12.10;69.20;11.70;98537.00;;;;5015254;28;20225;-76
2022/05/15 04:30:32;;;;;;;0.60;0.60;;;12.10;69.30;11.80;98543.00;;;;5015447;28;20232;-76
2022/05/15 04:32:59;;;;;;;1.27;0.87;;;12.20;69.60;11.80;98542.00;;;;5015356;28;20236;-76
2022/05/15 04:35:25;;;;;;;0.93;0.93;;;12.30;69.20;11.70;98540.00;;;;5015379;28;20201;-76
2022/05/15 04:37:54;;;;;;;0.80;0.80;;;12.30;68.60;11.60;98547.00;;;;4997996;28;20237;-76
2022/05/15 04:40:22;;;;;;;0.60;0.60;;;12.20;68.70;11.80;98536.00;;;;5015246;28;20592;-77
2022/05/15 04:42:48;;;;;;;0.50;0.50;;;12.30;68.20;11.70;98530.00;;;;5015009;28;20229;-76
2022/05/15 04:45:17;;;;;;;7.83;1.37;;;12.20;67.40;11.70;98538.00;;;;4998014;28;20209;-76
2022/05/15 04:47:45;;;;;;;0.70;0.70;;;12.30;67.20;11.80;98504.00;;;;5015014;28;20216;-76
2022/05/15 04:50:12;;;;;;;0.70;0.70;;;12.30;67.40;11.60;98501.00;;;;5015175;28;20204;-76
2022/05/15 04:52:39;;;;;;;0.73;0.73;;;12.30;66.50;11.70;98531.00;;;;5015044;28;20257;-75
2022/05/15 04:55:06;;;;;;;0.90;0.90;;;12.20;67.00;11.80;98538.00;;;;5015037;28;20280;-76
2022/05/15 04:57:33;;;;;;;3.10;1.33;;;12.30;67.70;11.90;98544.00;;;;5014901;28;20282;-76
2022/05/15 05:00:00;;;;;;;0.83;0.83;;;12.40;68.80;11.90;98536.00;;;;5015052;28;20283;-76
2022/05/15 05:02:26;;;;;;;1.20;1.10;;;12.40;68.10;11.90;98534.00;;;;5014448;28;20303;-76
2022/05/15 05:04:54;;;;;;;5.20;1.20;;;12.40;67.90;12.00;98527.00;;;;5014984;28;20267;-77
2022/05/15 05:07:21;;;;;;;0.67;0.67;;;12.50;68.20;12.00;98526.00;;;;5014677;28;20280;-76
2022/05/15 05:09:47;;;;;;;0.73;0.73;;;12.50;68.60;12.00;98537.00;;;;5014817;28;20201;-77
2022/05/15 05:12:13;;;;;;;1.00;1.00;;;12.60;68.80;12.00;98543.00;;;;5014670;28;20730;-77
2022/05/15 05:14:40;;;;;;;1.30;1.30;;;12.60;69.10;12.20;98546.00;;;;5014737;28;20205;-77
2022/05/15 05:17:06;;;;;;;0.73;0.73;;;12.70;69.20;12.30;98546.00;;;;4997341;28;20708;-77
2022/05/15 05:19:33;;;;;;;1.53;1.30;;;12.70;69.30;12.10;98543.00;;;;5014557;28;20233;-77
2022/05/15 05:22:01;;;;;;;1.00;1.00;;;12.80;69.70;12.30;98554.00;;;;5014479;28;20240;-77
2022/05/15 05:24:29;;;;;;;3.83;1.13;;;12.80;70.30;12.40;98566.00;;;;5014480;28;20223;-77
2022/05/15 05:26:56;;;;;;;0.63;0.63;;;12.90;70.00;12.50;98570.00;;;;5013645;28;20645;-77
2022/05/15 05:29:25;;;;;;;1.07;0.93;;;13.00;70.10;12.70;98574.00;;;;4997376;28;20579;-77
2022/05/15 05:31:52;;;;;;;0.50;0.50;;;13.10;69.60;12.60;98567.00;;;;4997102;28;20283;-77
2022/05/15 05:34:21;;;;;;;0.80;0.80;;;13.20;69.30;12.70;98570.00;;;;5014289;28;20251;-76
2022/05/15 05:36:50;;;;;;;0.50;0.50;;;13.20;70.00;12.90;98573.00;;;;5014316;28;20197;-77
2022/05/15 05:39:17;;;;;;;0.70;0.70;;;13.30;70.00;12.80;98574.00;;;;5014234;28;20290;-77
2022/05/15 05:41:44;;;;;;;1.43;1.43;;;13.40;70.00;13.00;98566.00;;;;4997108;28;20282;-77
2022/05/15 05:44:11;;;;;;;1.30;1.20;;;13.50;69.90;13.00;98564.00;;;;5014162;28;20224;-77
2022/05/15 05:46:38;;;;;;;0.63;0.63;;;13.60;70.00;13.10;98534.00;;;;4996826;28;20213;-76
2022/05/15 05:49:04;;;;;;;1.70;1.10;;;13.60;69.20;13.30;98560.00;;;;5014276;28;20526;-76
2022/05/15 05:51:31;;;;;;;1.47;1.20;;;13.80;68.80;13.30;98552.00;;;;5014069;28;20272;-77
2022/05/15 05:53:57;;;;;;;1.17;1.17;;;13.80;69.20;13.40;98553.00;;;;4996726;28;20253;-77
2022/05/15 05:56:27;;;;;;;1.33;1.33;;;14.00;68.00;13.50;98554.00;;;;5014139;28;20209;-76
2022/05/15 05:58:56;;;;;;;1.03;1.03;;;14.00;68.90;13.60;98553.00;;;;5013998;28;20228;-77
2022/05/15 06:01:22;;;;;;;1.30;1.30;;;14.10;69.40;13.70;98555.00;;;;5014019;28;20217;-76
2022/05/15 06:06:33;;;;;;;1.17;1.07;;;14.30;69.00;13.90;98550.00;;;;5013906;28;20200;-76
2022/05/15 06:09:00;;;;;;;0.80;0.80;;;;;14.00;98554.00;;;;5013832;28;20220;-76
2022/05/15 06:11:30;;;;;;;1.30;1.23;;;14.60;69.00;14.10;98549.00;;;;5013796;28;20213;-76
2022/05/15 06:13:56;;;;;;;1.10;1.10;;;14.70;68.40;14.20;98558.00;;;;5012919;28;20237;-77
2022/05/15 06:16:23;;;;;;;3.70;1.00;;;14.80;68.30;14.40;98561.00;;;;5013884;28;20197;-76
2022/05/15 06:18:49;;;;;;;0.97;0.97;;;14.90;67.80;14.50;98550.00;;;;5013695;28;20649;-76
2022/05/15 06:21:18;;;;;;;0.90;0.90;;;14.90;68.50;14.50;98549.00;;;;5013701;28;20232;-75
2022/05/15 06:23:44;;;;;;;0.80;0.80;;;15.10;67.70;14.60;98555.00;;;;5013730;28;20213;-77
2022/05/15 06:26:13;;;;;;;0.80;0.80;;;15.20;66.50;14.80;98556.00;;;;5013733;28;20234;-77
2022/05/15 06:28:43;;;;;;;1.40;1.07;;;15.40;64.20;14.90;98558.00;;;;5013652;28;20205;-77
2022/05/15 06:31:09;;;;;;;0.70;0.70;;;15.40;63.60;15.00;98555.00;;;;4996717;28;20720;-77
2022/05/15 06:33:36;;;;;;;0.70;0.70;;;15.50;64.40;15.10;98557.00;;;;5013623;28;20198;-77
2022/05/15 06:36:02;;;;;;;0.73;0.73;;;15.60;64.00;15.20;98554.00;;;;5013667;28;20265;-76
2022/05/15 06:38:29;;;;;;;0.73;0.73;;;15.60;61.90;15.30;98560.00;;;;5016609;28;20208;-77
2022/05/15 06:40:57;;;;;;;0.70;0.70;;;15.80;61.70;15.40;98558.00;;;;5017025;28;20225;-77
2022/05/15 06:43:24;;;;;;;0.90;0.90;;;15.90;60.80;15.50;98565.00;;;;5016886;28;20221;-77
2022/05/15 06:45:51;;;;;;;0.57;0.57;;;15.90;61.30;15.60;98558.00;;;;5016849;28;20681;-77
2022/05/15 06:48:20;;;;;;;0.67;0.67;;;16.10;58.60;15.60;98559.00;;;;5016847;28;20252;-76
2022/05/15 06:50:49;;;;;;;0.63;0.63;;;16.10;59.40;15.70;98558.00;;;;5016811;28;20641;-75
2022/05/15 06:53:16;;;;;;;0.43;0.43;;;16.20;59.50;15.80;98556.00;;;;5016929;28;20255;-77
2022/05/15 06:58:24;;;;;;;0.70;0.70;;;16.40;57.00;16.00;98553.00;;;;5015816;28;20233;-76
2022/05/15 07:00:51;;;;;;;0.63;0.63;;;16.50;57.10;16.00;98560.00;;;;5016713;28;20300;-76
2022/05/15 07:03:21;;;;;;;0.80;0.80;;;16.50;57.80;16.10;98558.00;;;;4999435;28;20229;-76
2022/05/15 07:05:50;;;;;;;1.23;1.00;;;16.60;57.80;16.20;98558.00;;;;4999346;28;20233;-76
2022/05/15 07:08:16;;;;;;;0.50;0.50;;;16.70;56.80;16.30;98556.00;;;;4999433;28;20377;-76
2022/05/15 07:10:43;;;;;;;0.60;0.60;;;16.90;54.90;16.40;98558.00;;;;5016451;28;20252;-76
2022/05/15 07:13:10;;;;;;;1.20;1.17;;;16.90;54.00;16.50;98558.00;;;;5016528;28;20254;-76
2022/05/15 07:15:37;;;;;;;0.50;0.50;;;16.90;54.30;16.60;98550.00;;;;4999544;28;20233;-76
2022/05/15 07:18:05;;;;;;;0.63;0.63;;;17.00;53.20;16.70;98546.00;;;;4999311;28;20259;-76
2022/05/15 07:20:31;;;;;;;0.60;0.60;;;17.20;53.30;16.80;98548.00;;;;5016228;28;20221;-76
2022/05/15 07:23:00;;;;;;;1.70;1.33;;;17.30;52.80;16.90;98541.00;;;;5016199;28;20253;-76
2022/05/15 07:25:27;;;;;;;0.90;0.90;;;17.40;52.10;17.10;98546.00;;;;4999073;28;20297;-76
2022/05/15 07:27:56;;;;;;;0.60;0.60;;;17.50;52.50;17.20;98552.00;;;;5016285;28;20239;-77
2022/05/15 07:30:23;;;;;;;0.60;0.60;;;17.60;52.40;17.40;98557.00;;;;5016714;28;20648;-77
2022/05/15 07:32:50;;;;;;;1.00;0.87;;;17.80;48.80;17.40;98543.00;;;;5016419;28;20307;-77
2022/05/15 07:35:19;;;;;;;1.10;1.07;;;17.80;48.90;17.40;98553.00;;;;4998931;28;20308;-77
2022/05/15 07:37:46;;;;;;;0.40;0.40;;;17.90;49.60;17.50;98552.00;;;;5016323;28;20649;-77
2022/05/15 07:40:13;;;;;;;0.53;0.53;;;18.00;49.90;17.60;98547.00;;;;5016079;28;20661;-77
2022/05/15 07:42:43;;;;;;;0.73;0.73;;;18.20;48.90;17.80;98547.00;;;;5016049;28;20220;-77
2022/05/15 07:45:14;;;;;;;0.93;0.93;;;18.20;49.50;17.90;98544.00;;;;4998749;28;20596;-77
2022/05/15 07:47:41;;;;;;;1.00;1.00;;;18.30;50.20;18.00;98540.00;;;;5016356;28;20207;-76
2022/05/15 07:50:09;;;;;;;0.77;0.77;;;18.40;48.20;18.10;98545.00;;;;5015227;28;20284;-76
2022/05/15 07:52:37;;;;;;;1.03;0.70;;;18.70;47.20;18.20;98546.00;;;;4998703;28;20225;-77
2022/05/15 07:55:06;;;;;;;0.47;0.47;;;18.60;47.90;18.30;98541.00;;;;5016106;28;20216;-77
2022/05/15 07:57:33;;;;;;;1.03;1.03;;;18.70;48.20;18.30;98539.00;;;;5016359;28;20218;-77
2022/05/15 08:00:01;;;;;;;0.67;0.67;;;18.90;47.70;18.40;98541.00;;;;5015701;28;20219;-77
2022/05/15 08:02:27;;;;;;;0.60;0.57;;;18.90;48.30;18.60;98539.00;;;;5015482;28;20282;-76
2022/05/15 08:10:24;;;;;;;0.40;0.40;;;19.30;43.00;18.90;98537.00;;;;5015578;28;20204;-76
2022/05/15 08:12:50;;;;;;;0.50;0.50;;;19.40;44.20;19.00;98542.00;;;;5015711;28;20194;-77
2022/05/15 08:15:17;;;;;;;1.07;0.80;;;19.50;44.20;19.10;98543.00;;;;5015585;28;20197;-77
2022/05/15 08:17:43;;;;;;;0.40;0.40;;;19.60;43.90;19.10;98541.00;;;;5015779;28;20194;-77
2022/05/15 08:25:47;;;;;;;0.63;0.63;;;19.80;42.20;19.50;98518.00;;;;5015681;28;20209;-75
2022/05/15 08:28:14;;;;;;;0.87;0.87;;;;;19.70;98543.00;;;;4998483;28;20504;-75
2022/05/15 08:30:42;;;;;;;0.40;0.40;;;20.10;42.10;19.80;98527.00;;;;5015590;28;20224;-75
2022/05/15 08:33:11;;;;;;;0.60;0.60;;;20.10;42.10;19.90;98528.00;;;;5015334;28;20202;-77
2022/05/15 08:35:38;;;;;;;0.63;0.63;;;;;20.00;98524.00;;;;5015546;28;20224;-77
2022/05/15 08:38:08;;;;;;;1.30;0.87;;;20.40;40.70;20.10;98523.00;;;;5015602;28;20312;-77
2022/05/15 08:40:44;;;;;;;0.43;0.43;;;;;20.30;98523.00;;;;5015227;28;20197;-77
2022/05/15 08:43:12;;;;;;;0.60;0.60;;;20.70;38.90;20.40;98524.00;;;;5015162;28;20236;-78
2022/05/15 08:45:51;;;;;;;0.57;0.57;;;;;20.50;98520.00;;;;5015210;28;20565;-77
2022/05/15 08:48:18;;;;;;;4.93;1.00;;;20.90;38.90;20.70;98529.00;;;;5015241;28;20251;-77
2022/05/15 08:50:49;;;;;;;0.50;0.50;;;;;20.90;98526.00;;;;5015099;28;20240;-77
2022/05/15 08:53:26;;;;;;;0.50;0.50;;;21.20;38.10;20.90;98528.00;;;;5014881;28;20661;-77
2022/05/15 08:55:59;;;;;;;0.53;0.53;;;21.30;38.60;21.00;98527.00;;;;5014939;28;20201;-76
2022/05/15 08:58:35;;;;;;;0.30;0.30;;;21.40;39.00;21.10;98524.00;;;;4997472;28;20268;-79
2022/05/15 09:01:05;;;;;;;0.50;0.50;;;21.50;38.60;21.30;98522.00;;;;5013581;28;20232;-75
2022/05/15 09:03:37;;;;;;;0.60;0.60;;;21.60;37.20;21.30;98520.00;;;;5014566;28;20239;-76
2022/05/15 09:06:08;;;;;;;0.90;0.90;;;21.70;38.70;21.30;98518.00;;;;5014686;28;20208;-79
2022/05/15 09:09:10;;;;;;;0.50;0.50;;;21.70;38.80;21.30;98521.00;;;;5014591;28;20287;-79
2022/05/15 09:11:52;;;;;;;0.52;0.52;;;21.80;38.70;21.70;98522.00;;;;5014948;28;20237;-76
2022/05/15 09:14:38;;;;;;;0.60;0.60;;;21.90;38.20;22.00;98521.00;;;;5014619;28;20728;-78
2022/05/15 09:17:18;;;;;;;0.50;0.50;;;22.20;38.20;21.90;98536.00;;;;5014653;28;20513;-75
2022/05/15 09:19:55;;;;;;;0.40;0.40;;;22.20;37.90;22.00;98528.00;;;;5014587;28;20197;-75
2022/05/15 09:22:30;;;;;;;0.80;0.80;;;22.30;37.00;22.10;98536.00;;;;5014348;28;20320;-75
2022/05/15 09:24:58;;;;;;;0.65;0.65;;;22.50;38.10;22.20;98531.00;;;;4997268;28;20202;-76
2022/05/15 09:27:28;;;;;;;0.50;0.50;;;22.60;37.90;22.40;98524.00;;;;5014491;28;20363;-76
2022/05/15 09:29:57;;;;;;;0.60;0.60;;;;;22.40;98522.00;;;;5014660;28;20197;-77
2022/05/15 09:32:35;;;;;;;0.57;0.57;;;22.80;36.80;22.50;98517.00;;;;5014529;28;20291;-75
2022/05/15 09:35:04;;;;;;;0.68;0.68;;;22.90;37.20;22.60;98525.00;;;;5014218;28;20217;-75
2022/05/15 09:40:39;;;;;;;0.52;0.52;;;23.20;36.70;22.90;98512.00;;;;5014239;28;20226;-78
2022/05/15 09:43:32;;;;;;;0.60;0.60;;;23.30;36.60;23.10;98515.00;;;;5014281;28;20256;-81
2022/05/15 09:46:10;;;;;;;0.55;0.55;;;23.40;35.80;23.20;98515.00;;;;5014317;28;20208;-80
2022/05/15 09:48:41;;;;;;;0.40;0.40;;;23.50;36.60;23.30;98509.00;;;;4996922;28;20296;-79
2022/05/15 09:51:11;;;;;;;0.40;0.40;;;;;23.60;98509.00;;;;5014437;28;20207;-80
2022/05/15 09:53:43;;;;;;;0.98;0.98;;;23.80;34.60;23.50;98508.00;;;;5014454;28;20283;-78
2022/05/15 09:56:24;;;;;;;0.63;0.63;;;23.80;34.30;23.50;98508.00;;;;5014139;28;20201;-77
2022/05/15 09:58:57;;;;;;;0.70;0.70;;;23.90;34.70;23.70;98516.00;;;;5014048;28;20201;-77
2022/05/15 10:01:34;;;;;;;0.40;0.40;;;24.00;34.10;23.80;98507.00;;;;5014002;28;20515;-77
2022/05/15 10:04:03;;;;;;;0.50;0.50;;;24.20;34.30;23.80;98495.00;;;;5014155;28;20236;-73
2022/05/15 10:06:45;;;;;;;0.77;0.77;;;24.20;34.60;23.80;98500.00;;;;5013876;28;20204;-76
2022/05/15 10:09:22;;;;;;;0.50;0.50;;;24.20;33.80;23.80;98495.00;;;;5013833;28;20653;-77
2022/05/15 10:11:58;;;;;;;0.40;0.40;;;;;24.00;98495.00;;;;5013362;28;20199;-75
2022/05/15 10:14:33;;;;;;;0.95;0.77;;;24.40;35.00;24.10;98494.00;;;;5013868;28;20201;-76
2022/05/15 10:17:01;;;;;;;0.60;0.60;;;;;24.20;98494.00;;;;5013751;28;20204;-76
2022/05/15 10:19:32;;;;;;;0.70;0.70;;;;;24.40;98494.00;;;;5013634;28;20625;-75
2022/05/15 10:22:34;;;;;;;3.90;1.15;;;24.70;32.20;24.50;98491.00;;;;5012854;28;20225;-76
2022/05/15 10:25:14;;;;;;;0.50;0.50;;;24.80;30.70;24.40;98491.00;;;;5013632;28;20201;-75
2022/05/15 10:27:50;;;;;;;0.80;0.80;;;24.80;32.00;24.50;98477.00;;;;5013328;28;20221;-75
2022/05/15 10:30:25;;;;;;;0.93;0.93;;;24.90;32.10;24.70;98484.00;;;;5013738;28;20197;-76
2022/05/15 10:33:00;;;;;;;0.73;0.73;;;25.10;32.30;24.90;98482.00;;;;4996318;28;20628;-78
2022/05/15 10:35:42;;;;;;;0.40;0.40;;;25.20;30.60;24.90;98478.00;;;;5013567;28;20261;-78
2022/05/15 10:38:22;;;;;;;0.50;0.50;;;25.30;30.30;25.00;98454.00;;;;5013638;28;20205;-77
2022/05/15 10:41:02;;;;;;;0.60;0.60;;;25.40;31.30;25.00;98470.00;;;;5013528;28;20272;-79
2022/05/15 10:43:53;;;;;;;0.80;0.80;;;25.40;31.30;25.10;98471.00;;;;5013871;28;20427;-79
2022/05/15 10:46:33;;;;;;;1.65;0.80;;;25.50;31.00;25.30;98475.00;;;;5014088;28;20291;-82
2022/05/15 10:49:22;;;;;;;0.47;0.47;;;25.60;31.90;25.40;98467.00;;;;5019994;28;20240;-82
2022/05/15 10:52:05;;;;;;;0.88;0.88;;;25.70;31.30;25.50;98459.00;;;;5020646;28;20350;-80
2022/05/15 10:57:46;;;;;;;0.43;0.43;;;26.00;30.50;25.50;98453.00;;;;5014222;28;20287;-81
2022/05/15 11:00:21;;;;;;;0.55;0.55;;;26.00;30.30;25.70;98449.00;;;;5013432;28;20201;-77
2022/05/15 11:03:27;;;;;;;0.85;0.85;;;26.00;29.30;25.90;98452.00;;;;5013233;28;20248;-75
2022/05/15 11:06:39;;;;;;;1.05;1.05;;;26.10;30.60;26.00;98440.00;;;;5013339;28;20205;-79
2022/05/15 11:09:17;;;;;;;0.80;0.80;;;26.40;27.30;26.10;98438.00;;;;4978180;28;20221;-79
2022/05/15 11:11:59;;;;;;;0.40;0.40;;;26.40;27.60;26.40;98438.00;;;;5012919;28;20209;-78
2022/05/15 11:14:41;;;;;;;0.50;0.50;;;26.60;30.20;26.50;98434.00;;;;4995953;28;20201;-79
2022/05/15 11:17:20;;;;;;;0.98;0.98;;;26.80;28.90;26.70;98434.00;;;;5012814;28;20200;-79
2022/05/15 11:19:47;;;;;;;0.30;0.30;;;27.00;27.90;26.90;98428.00;;;;5013051;28;20209;-80
2022/05/15 11:22:27;;;;;;;1.23;0.80;;;27.20;27.70;27.00;98425.00;;;;5012889;28;20229;-79
2022/05/15 11:25:05;;;;;;;0.60;0.60;;;27.30;27.80;27.10;98419.00;;;;5015069;28;20197;-80
2022/05/15 11:27:45;;;;;;;0.40;0.40;;;27.40;26.30;27.30;98427.00;;;;5016270;28;20208;-80
2022/05/15 11:30:20;;;;;;;0.68;0.68;;;27.50;27.40;27.60;98423.00;;;;5016163;28;20205;-79
2022/05/15 11:33:09;;;;;;;0.65;0.65;;;27.80;27.50;27.80;98402.00;;;;4998873;28;20524;-78
2022/05/15 11:35:39;;;;;;;0.70;0.70;;;28.00;26.90;27.80;98419.00;;;;4998864;28;20197;-81